TimeCDT,TemperatureF,Dew PointF,Humidity,Sea Level PressureIn,VisibilityMPH,Wind Direction,Wind SpeedMPH,Gust SpeedMPH,PrecipitationIn,Events,Conditions,WindDirDegrees,DateUTC
12:53 AM,71.1,45.0,39,29.73,10.0,North,9.2,-,N/A,,Clear,350,2013-05-15 05:53:00
1:53 AM,66.9,46.9,49,29.75,10.0,NE,9.2,-,N/A,,Clear,40,2013-05-15 06:53:00
2:53 AM,64.0,46.9,54,29.76,10.0,North,6.9,-,N/A,,Clear,10,2013-05-15 07:53:00
3:53 AM,64.0,44.1,48,29.75,10.0,NNE,11.5,-,N/A,,Clear,30,2013-05-15 08:53:00
4:53 AM,66.9,41.0,39,29.73,10.0,NE,19.6,24.2,N/A,,Clear,40,2013-05-15 09:53:00
5:53 AM,64.9,39.9,40,29.74,10.0,ENE,13.8,-,N/A,,Clear,60,2013-05-15 10:53:00
6:53 AM,63.0,37.9,40,29.77,10.0,ENE,11.5,-,N/A,,Clear,70,2013-05-15 11:53:00
7:53 AM,64.0,37.9,38,29.80,10.0,ENE,10.4,-,N/A,,Clear,60,2013-05-15 12:53:00
8:53 AM,66.9,37.9,34,29.81,10.0,East,18.4,-,N/A,,Clear,80,2013-05-15 13:53:00
9:53 AM,70.0,41.0,35,29.81,10.0,ENE,17.3,-,N/A,,Clear,60,2013-05-15 14:53:00
10:53 AM,73.9,41.0,30,29.82,10.0,NE,27.6,33.4,N/A,,Clear,50,2013-05-15 15:53:00
11:53 AM,78.1,43.0,29,29.80,10.0,ENE,25.3,33.4,N/A,,Clear,60,2013-05-15 16:53:00
12:53 PM,80.1,44.1,28,29.80,10.0,ENE,20.7,31.1,N/A,,Clear,60,2013-05-15 17:53:00
1:53 PM,81.0,45.0,28,29.80,10.0,East,18.4,25.3,N/A,,Clear,90,2013-05-15 18:53:00
2:53 PM,84.0,46.0,26,29.79,10.0,ENE,16.1,-,N/A,,Clear,60,2013-05-15 19:53:00
3:53 PM,84.9,46.0,26,29.76,10.0,East,18.4,24.2,N/A,,Clear,100,2013-05-15 20:53:00
4:53 PM,84.0,48.0,28,29.74,10.0,ENE,13.8,21.9,N/A,,Clear,70,2013-05-15 21:53:00
5:53 PM,84.9,46.0,26,29.73,10.0,ESE,9.2,-,N/A,,Clear,120,2013-05-15 22:53:00
6:53 PM,82.9,50.0,32,29.73,10.0,East,12.7,-,N/A,,Clear,100,2013-05-15 23:53:00
7:53 PM,81.0,52.0,36,29.71,10.0,East,8.1,-,N/A,,Clear,100,2013-05-16 00:53:00
8:53 PM,73.0,52.0,48,29.75,10.0,NE,5.8,-,N/A,,Clear,50,2013-05-16 01:53:00
9:53 PM,71.1,53.1,53,29.76,10.0,ENE,5.8,-,N/A,,Clear,60,2013-05-16 02:53:00
10:53 PM,64.9,52.0,63,29.78,10.0,NNE,6.9,-,N/A,,Clear,20,2013-05-16 03:53:00
11:53 PM,64.0,50.0,60,29.78,10.0,ENE,5.8,-,N/A,,Clear,70,2013-05-16 04:53:00